Flight Track Log - Related Links

Times and Time Zones

All times are in EDT time to prevent confusion due to time zone crossing. See the SWA17 flight status page for this flight to view local times or setup timezone preferences in your user account.

Time Position Orientation Groundspeed Altitude Reporting Facility
EDT Latitude Longitude Course Direction KTS MPH feet Rate Location/Type
Sat 06:15:15 AM 42.7278 -73.8081 254° West 133 153 1,700  Level Boston Center
Sat 06:16:25 AM 42.7167 -73.8614 254° West 231 266 4,000 2,492 Climbing Boston Center
Sat 06:17:25 AM 42.7075 -73.9319 260° West 205 236 7,100 3,200 Climbing Boston Center
Sat 06:18:25 AM 42.6347 -73.9133 169° South 155 178 10,400 3,150 Climbing Boston Center
Sat 06:19:25 AM 42.5456 -73.8744 162° South 253 291 13,400 3,100 Climbing Boston Center
Sat 06:20:25 AM 42.4564 -73.8442 166° South 346 398 16,600 3,050 Climbing Boston Center
Sat 06:21:25 AM 42.3442 -73.8081 167° South 373 429 19,500 2,900 Climbing Boston Center
Sat 06:22:25 AM 42.2364 -73.7692 165° South 392 451 22,400 2,100 Climbing Boston Center
Sat 06:23:25 AM 42.1242 -73.7306 166° South 406 467 23,700 2,100 Climbing Boston Center
Sat 06:24:25 AM 42.0183 -73.7031 169° South 426 490 26,600 2,150 Climbing Boston Center
Sat 06:25:25 AM 41.9133 -73.7542 200° South 400 460 28,000 700 Climbing Boston Center
Sat 06:26:25 AM 41.8147 -73.8133 204° Southwest 395 455 28,000  Level Boston Center
Sat 06:28:01 AM 41.6531 -73.9028 202° Southwest 397 457 28,000  Level New York Center
Sat 06:29:02 AM 41.5453 -73.9642 203° Southwest 397 457 28,000  Level New York Center
Sat 06:30:03 AM 41.4439 -74.0231 204° Southwest 397 457 28,000  Level New York Center
Sat 06:31:00 AM 41.3400 -74.0842 204° Southwest 399 459 28,000 -350 Level New York Center
Sat 06:32:03 AM 41.2383 -74.1456 204° Southwest 405 466 27,300 -732 Descending New York Center
Sat 06:33:03 AM 41.1619 -74.1911 204° Southwest 400 460 26,500 -655 Descending New York Center
Sat 06:34:02 AM 41.0500 -74.2489 201° Southwest 400 460 26,000 -256 Descending New York Center
Sat 06:35:00 AM 40.9525 -74.3069 204° Southwest 400 460 26,000  Level New York Center
Sat 06:36:02 AM 40.8528 -74.3650 204° Southwest 400 460 26,000  Level New York Center
Sat 06:37:01 AM 40.7650 -74.4425 214° Southwest 395 455 26,000 -595 Level New York Center
Sat 06:38:03 AM 40.7053 -74.5542 235° Southwest 383 441 24,800 -992 Descending New York Center
Sat 06:39:02 AM 40.6658 -74.6778 247° West 372 428 24,000 -1,160 Descending New York Center
Sat 06:40:02 AM 40.6425 -74.8078 257° West 361 415 22,500 -1,008 Descending New York Center
Sat 06:41:01 AM 40.6197 -74.9294 256° West 361 415 22,000 -248 Descending New York Center
Sat 06:42:03 AM 40.5581 -75.0158 227° Southwest 330 380 22,000  Level New York Center
Sat 06:43:03 AM 40.4583 -75.0125 179° South 296 341 22,000 -51 Level New York Center
Sat 06:44:01 AM 40.3694 -75.0478 197° South 318 366 21,900 -564 Descending New York Center
Sat 06:45:00 AM 40.3036 -75.1392 227° Southwest 331 381 20,900 -1,000 Descending New York Center
Sat 06:46:01 AM 40.2397 -75.2303 227° Southwest 336 387 19,900 -942 Descending New York Center
Sat 06:47:01 AM 40.1650 -75.3286 225° Southwest 349 402 19,000 -446 Descending New York Center
Sat 06:48:02 AM 40.1100 -75.4064 227° Southwest 344 396 19,000  Level New York Center
Sat 06:49:03 AM 40.0417 -75.5022 227° Southwest 339 390 19,000  Level New York Center
Sat 06:50:03 AM 39.9842 -75.5797 226° Southwest 332 382 19,000  Level New York Center
Sat 06:51:03 AM 39.9156 -75.6778 228° Southwest 332 382 19,000 -356 Level New York Center
Sat 06:52:01 AM 39.8703 -75.7611 235° Southwest 338 389 18,300 -1,465 Descending New York Center
Sat 06:53:55 AM 39.7667 -75.9500 235° Southwest 317 365 14,800 -1,737 Descending Potomac TRACON
Sat 06:55:00 AM 39.7126 -76.0415 237° Southwest  Level FlightAware Approximate
Sat 06:55:49 AM 39.6833 -76.1333 237° Southwest 304 350 11,700  Level Potomac TRACON
Sat 06:56:49 AM 39.6333 -76.2167 232° Southwest 302 348 10,000 -1,667 Descending Potomac TRACON
Sat 06:57:55 AM 39.5833 -76.3167 237° Southwest 290 334 8,200 -1,550 Descending Potomac TRACON
Sat 06:58:49 AM 39.5500 -76.3833 237° Southwest 286 329 6,900 -1,368 Descending Potomac TRACON
Sat 06:59:49 AM 39.5000 -76.4667 232° Southwest 276 318 5,600 -950 Descending Potomac TRACON
Sat 07:00:49 AM 39.4500 -76.5500 232° Southwest 262 302 5,000 -474 Descending Potomac TRACON
Sat 07:01:43 AM 39.4167 -76.6333 243° Southwest 265 305 4,700 -526 Descending Potomac TRACON
Sat 07:02:43 AM 39.3833 -76.7000 237° Southwest 262 302 4,000 -350 Descending Potomac TRACON
Sat 07:03:43 AM 39.3500 -76.7833 243° Southwest 244 281 4,000  Level Potomac TRACON
Sat 07:04:37 AM 39.3167 -76.8500 237° Southwest 236 272 4,000 -522 Level Potomac TRACON
Sat 07:05:38 AM 39.2833 -76.9000 229° Southwest 209 241 3,000 -835 Descending Potomac TRACON
Sat 07:06:32 AM 39.2333 -76.9000 180° South 202 232 2,400 -526 Descending Potomac TRACON
Sat 07:07:32 AM 39.1833 -76.8667 153° Southeast 172 198 2,000 -263 Descending Potomac TRACON
Sat 07:08:26 AM 39.1833 -76.8167 90° East 174 200 1,900 -421 Descending Potomac TRACON
Sat 07:09:26 AM 39.1833 -76.7500 90° East 149 171 1,200 -750 Descending Potomac TRACON
Sat 07:10:26 AM 39.1833 -76.7000 90° East 137 158 400 -800 Descending Potomac TRACON
Sat 07:12:00 AM 39.1754 -76.6683 218° Southwest  Level Estimated
Sat 07:19:00 AM 39.1754 -76.6683 270° West  Level Estimated
Sat 07:20:00 AM 39.1754 -76.6683 270° West  Level Estimated
Sat 07:21:00 AM 39.1754 -76.6683 270° West  Level Estimated
Sat 07:22:00 AM 39.1754 -76.6683 270° West  Level Estimated

Login

Don't have an account? Register now (free) for customized features, flight alerts, and more!